Time;durP1;ratioP1;P1;durP2;ratioP2;P2;SDS_P1;SDS_P2;PMS_P1;PMS_P2;Temp;Humidity;BMP_temperature;BMP_pressure;BME280_temperature;BME280_humidity;BME280_pressure;Samples;Min_cycle;Max_cycle;Signal;HPM_P1;HPM_P2
2022/11/14 00:01:46;;;;;;;15.40;12.20;;;6.80;99.90;;;;;;5114535;28;20199;-59
2022/11/14 00:04:14;;;;;;;18.97;12.77;;;6.80;99.90;;;;;;5114607;28;20203;-59
2022/11/14 00:06:42;;;;;;;17.93;13.70;;;6.80;99.90;;;;;;5114759;28;20234;-59
2022/11/14 00:09:09;;;;;;;12.90;11.13;;;6.80;99.90;;;;;;5114373;28;20782;-58
2022/11/14 00:11:36;;;;;;;14.43;11.90;;;6.90;99.90;;;;;;5114154;28;20377;-58
2022/11/14 00:14:03;;;;;;;14.33;11.57;;;6.90;99.90;;;;;;5113972;28;20211;-58
2022/11/14 00:16:30;;;;;;;16.50;11.90;;;6.90;99.90;;;;;;5114776;28;20230;-58
2022/11/14 00:18:57;;;;;;;15.63;11.37;;;6.90;99.90;;;;;;5114256;28;20247;-58
2022/11/14 00:21:24;;;;;;;14.47;11.23;;;6.90;99.90;;;;;;5114299;28;20655;-58
2022/11/14 00:23:52;;;;;;;14.30;11.40;;;6.90;99.90;;;;;;5113890;28;20212;-58
2022/11/14 00:26:19;;;;;;;15.47;11.73;;;6.90;99.90;;;;;;5114599;28;20212;-58
2022/11/14 00:28:46;;;;;;;14.57;11.93;;;6.90;99.90;;;;;;5114304;28;20220;-58
2022/11/14 00:31:12;;;;;;;13.77;11.73;;;6.90;99.90;;;;;;5114307;28;20308;-58
2022/11/14 00:33:39;;;;;;;14.53;11.70;;;6.90;99.90;;;;;;5114020;28;20295;-58
2022/11/14 00:36:06;;;;;;;16.50;13.17;;;6.90;99.90;;;;;;5113903;28;20226;-58
2022/11/14 00:38:33;;;;;;;15.47;12.00;;;7.00;99.90;;;;;;5114288;28;20525;-58
2022/11/14 00:41:02;;;;;;;15.20;12.47;;;7.10;99.90;;;;;;5113848;28;20204;-58
2022/11/14 00:43:29;;;;;;;16.90;13.73;;;7.20;99.90;;;;;;5114007;28;20212;-58
2022/11/14 00:45:56;;;;;;;14.33;12.00;;;7.20;99.90;;;;;;5113863;28;20291;-58
2022/11/14 00:48:23;;;;;;;14.83;11.60;;;7.30;99.90;;;;;;5114358;28;20220;-58
2022/11/14 00:50:50;;;;;;;15.30;11.70;;;7.30;99.90;;;;;;5114153;28;20650;-58
2022/11/14 00:53:17;;;;;;;13.73;11.23;;;7.30;99.90;;;;;;5114511;28;20210;-58
2022/11/14 00:55:44;;;;;;;14.53;11.57;;;7.30;99.90;;;;;;5113696;28;20667;-58
2022/11/14 00:58:12;;;;;;;13.53;10.83;;;7.20;99.90;;;;;;5114365;28;20233;-58
2022/11/14 01:00:39;;;;;;;16.73;11.00;;;7.10;99.90;;;;;;5114268;28;20384;-58
2022/11/14 01:03:06;;;;;;;12.27;10.23;;;7.10;99.90;;;;;;5114942;28;20207;-58
2022/11/14 01:05:33;;;;;;;13.60;10.63;;;7.30;99.90;;;;;;5114538;28;20589;-58
2022/11/14 01:08:00;;;;;;;13.50;10.43;;;7.40;99.90;;;;;;5115624;28;20203;-58
2022/11/14 01:10:27;;;;;;;14.53;11.13;;;7.60;99.90;;;;;;5115477;28;20736;-58
2022/11/14 01:12:54;;;;;;;15.20;11.27;;;7.60;99.90;;;;;;5116365;28;20592;-58
2022/11/14 01:15:22;;;;;;;13.07;11.13;;;7.60;99.90;;;;;;5115968;28;20235;-58
2022/11/14 01:17:49;;;;;;;13.17;10.57;;;7.60;99.90;;;;;;5115557;28;20671;-58
2022/11/14 01:20:16;;;;;;;14.93;10.73;;;7.60;99.90;;;;;;5115907;28;20200;-58
2022/11/14 01:22:43;;;;;;;12.97;10.40;;;7.60;99.90;;;;;;5115408;28;20207;-58
2022/11/14 01:25:10;;;;;;;14.50;10.67;;;7.60;99.90;;;;;;5115043;28;20215;-58
2022/11/14 01:27:37;;;;;;;13.03;10.30;;;7.40;99.90;;;;;;5115566;28;20217;-58
2022/11/14 01:30:05;;;;;;;12.27;10.43;;;7.40;99.90;;;;;;5115523;28;20273;-59
2022/11/14 01:32:33;;;;;;;12.53;10.63;;;7.40;99.90;;;;;;5115508;28;20207;-58
2022/11/14 01:35:00;;;;;;;12.53;10.57;;;7.30;99.90;;;;;;5115238;28;20208;-59
2022/11/14 01:37:27;;;;;;;12.27;10.33;;;7.20;99.90;;;;;;5115807;28;20227;-59
2022/11/14 01:39:54;;;;;;;12.57;9.93;;;7.10;99.90;;;;;;5116556;28;20234;-58
2022/11/14 01:42:21;;;;;;;13.07;11.03;;;7.00;99.90;;;;;;5116438;28;20294;-58
2022/11/14 01:44:49;;;;;;;16.23;11.63;;;7.00;99.90;;;;;;5114721;28;20203;-58
2022/11/14 01:47:20;;;;;;;15.33;10.87;;;7.10;99.90;;;;;;5115534;28;20209;-59
2022/11/14 01:49:53;;;;;;;12.83;10.60;;;7.20;99.90;;;;;;5115650;28;20223;-57
2022/11/14 01:52:24;;;;;;;12.50;10.17;;;7.30;99.90;;;;;;5114985;28;20207;-58
2022/11/14 01:54:53;;;;;;;13.80;11.20;;;7.50;99.90;;;;;;5114966;28;20215;-59
2022/11/14 01:57:25;;;;;;;13.20;11.37;;;7.60;99.90;;;;;;5114814;28;20256;-59
2022/11/14 01:59:55;;;;;;;14.87;10.60;;;7.70;99.90;;;;;;5114105;28;20223;-59
2022/11/14 02:02:24;;;;;;;12.97;10.97;;;7.80;99.90;;;;;;5114131;28;20659;-59
2022/11/14 02:04:56;;;;;;;15.43;11.23;;;7.80;99.90;;;;;;5113678;28;20208;-58
2022/11/14 02:07:25;;;;;;;13.43;11.00;;;7.90;99.90;;;;;;5114080;28;20231;-58
2022/11/14 02:09:53;;;;;;;12.40;10.80;;;7.90;99.90;;;;;;5113551;28;20276;-58
2022/11/14 02:12:21;;;;;;;13.30;11.03;;;7.90;99.90;;;;;;5113747;28;20234;-58
2022/11/14 02:14:51;;;;;;;12.70;10.70;;;7.90;99.90;;;;;;5113104;28;20372;-59
2022/11/14 02:17:19;;;;;;;13.87;10.90;;;7.90;99.90;;;;;;5112624;28;20204;-59
2022/11/14 02:19:49;;;;;;;14.57;12.27;;;8.00;99.90;;;;;;5113196;28;20310;-58
2022/11/14 02:22:17;;;;;;;15.37;12.27;;;8.00;99.90;;;;;;5113099;28;20203;-58
2022/11/14 02:24:45;;;;;;;15.93;12.43;;;7.90;99.90;;;;;;5112656;28;20300;-58
2022/11/14 02:27:14;;;;;;;16.07;12.90;;;7.80;99.90;;;;;;5113243;28;20290;-58
2022/11/14 02:29:41;;;;;;;17.97;12.90;;;7.60;99.90;;;;;;5113187;28;20248;-58
2022/11/14 02:32:09;;;;;;;17.03;12.50;;;7.10;99.90;;;;;;5113141;28;20230;-58
2022/11/14 02:34:35;;;;;;;16.67;13.00;;;6.70;99.90;;;;;;5112579;28;20702;-58
2022/11/14 02:37:02;;;;;;;16.97;12.30;;;6.30;99.90;;;;;;5113221;28;20211;-58
2022/11/14 02:39:31;;;;;;;17.53;12.63;;;6.10;99.90;;;;;;5113268;28;20246;-58
2022/11/14 02:41:58;;;;;;;16.93;12.67;;;5.90;99.90;;;;;;5113316;28;20195;-58
2022/11/14 02:44:25;;;;;;;17.17;13.57;;;5.80;99.90;;;;;;5113120;28;20730;-58
2022/11/14 02:46:52;;;;;;;16.83;12.67;;;5.70;99.90;;;;;;5112845;28;20226;-58
2022/11/14 02:49:19;;;;;;;16.33;13.00;;;5.70;99.90;;;;;;5112939;28;20231;-58
2022/11/14 02:51:46;;;;;;;18.70;14.33;;;5.50;99.90;;;;;;5112933;28;20235;-58
2022/11/14 02:54:13;;;;;;;18.33;13.97;;;5.50;99.90;;;;;;5112283;28;20743;-58
2022/11/14 02:56:41;;;;;;;17.07;13.13;;;5.40;99.90;;;;;;5112544;28;20211;-58
2022/11/14 02:59:08;;;;;;;16.67;13.17;;;5.30;99.90;;;;;;5116124;28;20224;-58
2022/11/14 03:01:35;;;;;;;16.60;12.80;;;5.20;99.90;;;;;;5116261;28;20732;-58
2022/11/14 03:04:02;;;;;;;18.53;13.87;;;5.00;99.90;;;;;;5115609;28;20207;-58
2022/11/14 03:06:29;;;;;;;19.13;13.60;;;4.90;99.90;;;;;;5116373;28;20226;-58
2022/11/14 03:08:56;;;;;;;17.70;13.70;;;4.80;99.90;;;;;;5115753;28;20605;-58
2022/11/14 03:11:23;;;;;;;20.33;13.90;;;4.80;99.90;;;;;;5116167;28;20227;-58
2022/11/14 03:13:51;;;;;;;22.80;14.70;;;4.80;99.90;;;;;;5116306;28;20294;-58
2022/11/14 03:16:18;;;;;;;21.20;14.80;;;4.70;99.90;;;;;;5115147;28;20212;-58
2022/11/14 03:18:45;;;;;;;20.10;14.10;;;4.70;99.90;;;;;;5115272;28;20721;-58
2022/11/14 03:21:14;;;;;;;19.47;13.73;;;4.60;99.90;;;;;;5115794;28;20207;-58
2022/11/14 03:23:42;;;;;;;19.80;14.10;;;4.60;99.90;;;;;;5115161;28;20686;-58
2022/11/14 03:26:11;;;;;;;19.27;14.27;;;4.60;99.90;;;;;;5115301;28;20227;-58
2022/11/14 03:28:39;;;;;;;19.73;13.83;;;4.60;99.90;;;;;;5115395;28;20227;-58
2022/11/14 03:31:08;;;;;;;19.40;14.00;;;4.60;99.90;;;;;;5115035;28;20663;-58
2022/11/14 03:33:35;;;;;;;19.67;14.10;;;4.60;99.90;;;;;;5115134;28;20663;-58
2022/11/14 03:36:03;;;;;;;19.83;14.80;;;4.60;99.90;;;;;;5115186;28;20212;-58
2022/11/14 03:38:30;;;;;;;20.10;14.67;;;4.50;99.90;;;;;;5114828;28;20613;-58
2022/11/14 03:40:58;;;;;;;19.90;14.83;;;4.50;99.90;;;;;;5114906;28;20208;-58
2022/11/14 03:43:26;;;;;;;18.87;13.80;;;4.40;99.90;;;;;;5115359;28;20203;-56
2022/11/14 03:45:53;;;;;;;21.00;14.93;;;4.40;99.90;;;;;;5114422;28;20203;-57
2022/11/14 03:48:21;;;;;;;18.83;13.67;;;4.40;99.90;;;;;;5115226;28;20234;-57
2022/11/14 03:50:48;;;;;;;18.77;14.40;;;4.30;99.90;;;;;;5115387;28;20227;-57
2022/11/14 03:53:15;;;;;;;20.70;13.77;;;4.30;99.90;;;;;;5115086;28;20208;-57
2022/11/14 03:55:43;;;;;;;20.80;14.97;;;4.00;99.90;;;;;;5114356;28;20207;-57
2022/11/14 03:58:10;;;;;;;17.70;12.40;;;3.80;99.90;;;;;;5114628;28;20224;-57
2022/11/14 04:00:37;;;;;;;16.23;11.80;;;3.50;99.90;;;;;;5114627;28;20627;-56
2022/11/14 04:03:04;;;;;;;17.27;12.33;;;3.20;99.90;;;;;;5114640;28;20340;-57
2022/11/14 04:05:32;;;;;;;17.17;12.50;;;3.10;99.90;;;;;;5114126;28;20232;-57
2022/11/14 04:07:59;;;;;;;18.30;12.87;;;3.00;99.90;;;;;;5114339;28;20273;-57
2022/11/14 04:10:26;;;;;;;21.07;13.63;;;3.00;99.90;;;;;;5114416;28;20690;-57
2022/11/14 04:12:54;;;;;;;20.10;14.53;;;3.10;99.90;;;;;;5114306;28;20227;-57
2022/11/14 04:15:21;;;;;;;18.13;12.13;;;3.20;99.90;;;;;;5114181;28;20256;-58
2022/11/14 04:17:48;;;;;;;18.13;12.53;;;3.10;99.90;;;;;;5114394;28;20242;-57
2022/11/14 04:20:16;;;;;;;17.30;12.60;;;3.20;99.90;;;;;;5114312;28;20227;-58
2022/11/14 04:22:45;;;;;;;18.13;12.43;;;3.20;99.90;;;;;;5114366;28;20203;-58
2022/11/14 04:25:12;;;;;;;17.27;12.40;;;3.30;99.90;;;;;;5113639;28;20287;-57
2022/11/14 04:27:39;;;;;;;18.00;12.73;;;3.40;99.90;;;;;;5114195;28;20582;-58
2022/11/14 04:30:07;;;;;;;16.30;12.13;;;3.50;99.90;;;;;;5114518;28;20230;-58
2022/11/14 04:32:34;;;;;;;18.73;13.23;;;3.50;99.90;;;;;;5114099;28;20224;-57
2022/11/14 04:35:01;;;;;;;17.03;12.57;;;3.50;99.90;;;;;;5113604;28;20209;-58
2022/11/14 04:37:28;;;;;;;14.93;10.50;;;3.50;99.90;;;;;;5114220;28;20211;-58
2022/11/14 04:39:59;;;;;;;15.23;11.13;;;3.50;99.90;;;;;;5113934;28;20234;-58
2022/11/14 04:42:26;;;;;;;14.77;11.03;;;3.50;99.90;;;;;;5114394;28;20220;-57
2022/11/14 04:44:53;;;;;;;14.53;10.73;;;3.50;99.90;;;;;;5113453;28;20199;-58
2022/11/14 04:47:20;;;;;;;13.10;10.33;;;3.60;99.90;;;;;;5113784;28;20239;-58
2022/11/14 04:49:47;;;;;;;15.00;10.90;;;3.70;99.90;;;;;;5113955;28;20230;-58
2022/11/14 04:52:14;;;;;;;14.53;10.87;;;3.80;99.90;;;;;;5113937;28;20226;-57
2022/11/14 04:54:41;;;;;;;14.17;10.37;;;3.90;99.90;;;;;;5113302;28;20221;-58
2022/11/14 04:57:09;;;;;;;14.30;10.80;;;4.00;99.90;;;;;;5114504;28;20294;-58
2022/11/14 04:59:36;;;;;;;13.83;10.27;;;4.10;99.90;;;;;;5113941;28;20223;-58
2022/11/14 05:02:03;;;;;;;14.53;11.30;;;4.20;99.90;;;;;;5113618;28;20664;-58
2022/11/14 05:04:30;;;;;;;14.77;10.60;;;4.30;99.90;;;;;;5113427;28;20679;-57
2022/11/14 05:06:56;;;;;;;15.43;10.63;;;4.30;99.90;;;;;;5113329;28;20203;-57
2022/11/14 05:09:23;;;;;;;13.87;11.07;;;4.30;99.90;;;;;;5113560;28;20223;-57
2022/11/14 05:11:50;;;;;;;13.23;10.07;;;4.30;99.90;;;;;;5113450;28;20258;-58
2022/11/14 05:14:18;;;;;;;14.97;11.30;;;4.40;99.90;;;;;;5113130;28;20211;-56
2022/11/14 05:16:45;;;;;;;14.50;10.60;;;4.40;99.90;;;;;;5113520;28;20588;-58
2022/11/14 05:19:12;;;;;;;13.50;10.37;;;4.30;99.90;;;;;;5113441;28;20227;-57
2022/11/14 05:21:40;;;;;;;15.27;10.33;;;4.30;99.90;;;;;;5112620;28;20202;-57
2022/11/14 05:24:07;;;;;;;14.83;10.27;;;4.30;99.90;;;;;;5113613;28;20210;-57
2022/11/14 05:26:34;;;;;;;14.27;10.77;;;4.30;99.90;;;;;;5112681;28;20204;-57
2022/11/14 05:29:01;;;;;;;13.47;9.93;;;4.30;99.90;;;;;;5113042;28;20230;-58
2022/11/14 05:31:29;;;;;;;14.03;9.97;;;4.20;99.90;;;;;;5112950;28;20598;-57
2022/11/14 05:33:55;;;;;;;14.60;10.20;;;4.20;99.90;;;;;;5112954;28;20207;-58
2022/11/14 05:36:22;;;;;;;13.63;10.13;;;4.20;99.90;;;;;;5112367;28;20211;-58
2022/11/14 05:38:49;;;;;;;14.37;10.73;;;4.10;99.90;;;;;;5112926;28;20231;-58
2022/11/14 05:41:18;;;;;;;14.90;10.23;;;4.10;99.90;;;;;;5112942;28;20243;-58
2022/11/14 05:43:45;;;;;;;12.63;9.73;;;4.00;99.90;;;;;;5113001;28;20203;-58
2022/11/14 05:46:14;;;;;;;14.80;10.93;;;4.00;99.90;;;;;;5112151;28;20204;-57
2022/11/14 05:48:42;;;;;;;13.77;10.43;;;3.90;99.90;;;;;;5112690;28;20314;-57
2022/11/14 05:51:12;;;;;;;14.53;10.57;;;4.00;99.90;;;;;;5112750;28;20206;-57
2022/11/14 05:53:39;;;;;;;15.13;10.67;;;3.90;99.90;;;;;;5113006;28;20569;-57
2022/11/14 05:56:08;;;;;;;18.63;13.43;;;3.90;99.90;;;;;;5112206;28;20235;-57
2022/11/14 05:58:35;;;;;;;15.70;12.13;;;3.80;99.90;;;;;;5112891;28;20230;-57
2022/11/14 06:01:04;;;;;;;15.90;11.60;;;3.80;99.90;;;;;;5112984;28;20226;-57
2022/11/14 06:03:32;;;;;;;16.00;11.60;;;3.80;99.90;;;;;;5113282;28;20219;-59
2022/11/14 06:06:02;;;;;;;15.93;11.00;;;3.80;99.90;;;;;;5112027;28;20227;-58
2022/11/14 06:08:29;;;;;;;16.27;11.23;;;3.90;99.90;;;;;;5112947;28;20250;-58
2022/11/14 06:10:56;;;;;;;16.67;11.37;;;4.10;99.90;;;;;;5112391;28;20210;-59
2022/11/14 06:13:23;;;;;;;18.33;12.90;;;4.20;99.90;;;;;;5112583;28;20219;-58
2022/11/14 06:15:50;;;;;;;15.03;11.13;;;4.30;99.90;;;;;;5112188;28;20206;-59
2022/11/14 06:18:17;;;;;;;17.40;11.67;;;4.40;99.90;;;;;;5113023;28;20223;-59
2022/11/14 06:20:44;;;;;;;16.23;11.00;;;4.60;99.90;;;;;;5113027;28;20711;-59
2022/11/14 06:23:12;;;;;;;17.00;11.50;;;4.70;99.90;;;;;;5113224;28;20214;-59
2022/11/14 06:25:39;;;;;;;14.90;10.97;;;4.80;99.90;;;;;;5113333;28;20250;-58
2022/11/14 06:28:06;;;;;;;15.53;11.43;;;4.90;99.90;;;;;;5113078;28;20290;-58
2022/11/14 06:30:33;;;;;;;16.97;11.77;;;5.10;99.90;;;;;;5113656;28;20211;-58
2022/11/14 06:33:00;;;;;;;18.10;11.70;;;5.20;99.90;;;;;;5117633;28;20232;-58
2022/11/14 06:35:27;;;;;;;14.80;10.93;;;5.40;99.90;;;;;;5118374;28;20213;-59
2022/11/14 06:37:53;;;;;;;15.23;10.43;;;5.60;99.90;;;;;;5118668;28;20288;-60
2022/11/14 06:40:22;;;;;;;16.67;11.37;;;5.80;99.90;;;;;;5118279;28;20211;-60
2022/11/14 06:42:50;;;;;;;15.77;10.77;;;5.90;99.90;;;;;;5118278;28;20248;-59
2022/11/14 06:45:17;;;;;;;13.90;10.40;;;5.80;99.90;;;;;;5118419;28;20210;-57
2022/11/14 06:47:43;;;;;;;14.57;9.63;;;5.70;99.90;;;;;;5118482;28;20211;-58
2022/11/14 06:50:11;;;;;;;13.50;10.07;;;5.70;99.90;;;;;;5117343;28;20227;-59
2022/11/14 06:52:37;;;;;;;13.47;8.97;;;5.70;99.90;;;;;;5116855;28;20228;-59
2022/11/14 06:55:05;;;;;;;12.43;8.87;;;5.70;99.90;;;;;;5116754;28;20639;-58
2022/11/14 06:57:33;;;;;;;12.87;9.67;;;5.60;99.90;;;;;;5117514;28;20207;-59
2022/11/14 07:00:00;;;;;;;13.43;9.30;;;5.50;99.90;;;;;;5117886;28;20224;-58
2022/11/14 07:02:27;;;;;;;13.73;10.03;;;5.50;99.90;;;;;;5117355;28;20200;-58
2022/11/14 07:04:54;;;;;;;13.90;8.97;;;5.60;99.90;;;;;;5116000;28;20735;-59
2022/11/14 07:07:20;;;;;;;12.67;9.37;;;5.80;99.90;;;;;;5115986;28;20200;-58
2022/11/14 07:09:47;;;;;;;13.03;9.73;;;5.90;99.90;;;;;;5115823;28;20305;-58
2022/11/14 07:12:14;;;;;;;15.17;10.87;;;5.90;99.90;;;;;;5115857;28;20226;-58
2022/11/14 07:14:42;;;;;;;13.23;10.07;;;5.90;99.90;;;;;;5115916;28;20211;-58
2022/11/14 07:17:09;;;;;;;13.37;10.13;;;5.90;99.90;;;;;;5115872;28;20294;-58
2022/11/14 07:19:36;;;;;;;14.17;10.20;;;5.90;99.90;;;;;;5116034;28;20239;-59
2022/11/14 07:22:02;;;;;;;13.73;9.33;;;5.90;99.90;;;;;;5116085;28;20207;-58
2022/11/14 07:24:29;;;;;;;12.97;9.40;;;5.90;99.90;;;;;;5115135;28;20204;-58
2022/11/14 07:26:56;;;;;;;14.30;9.70;;;5.90;99.90;;;;;;5115898;28;20211;-58
2022/11/14 07:29:23;;;;;;;14.00;10.47;;;6.00;99.90;;;;;;5115517;28;20238;-58
2022/11/14 07:31:51;;;;;;;13.57;10.17;;;6.10;99.90;;;;;;5115466;28;20211;-58
2022/11/14 07:34:18;;;;;;;13.83;9.37;;;6.30;99.90;;;;;;5115670;28;20587;-58
2022/11/14 07:36:44;;;;;;;13.63;10.10;;;6.40;99.90;;;;;;5114983;28;20211;-58
2022/11/14 07:39:11;;;;;;;17.10;10.50;;;6.50;99.90;;;;;;5115756;28;20239;-57
2022/11/14 07:41:39;;;;;;;12.10;9.03;;;6.50;99.90;;;;;;5115519;28;20579;-57
2022/11/14 07:44:06;;;;;;;13.00;10.30;;;6.40;99.90;;;;;;5114346;28;20203;-57
2022/11/14 07:46:33;;;;;;;11.83;9.47;;;6.40;99.90;;;;;;5114810;28;20203;-58
2022/11/14 07:49:01;;;;;;;13.70;9.67;;;6.40;99.90;;;;;;5115618;28;20238;-58
2022/11/14 07:51:28;;;;;;;13.83;10.30;;;6.50;99.90;;;;;;5115794;28;20679;-58
2022/11/14 07:53:55;;;;;;;15.10;10.20;;;6.50;99.90;;;;;;5115366;28;20752;-58
2022/11/14 07:56:22;;;;;;;12.57;9.93;;;6.50;99.90;;;;;;5114833;28;20203;-58
2022/11/14 07:58:49;;;;;;;15.27;10.97;;;6.60;99.90;;;;;;5115384;28;20224;-62
2022/11/14 08:01:16;;;;;;;16.37;10.00;;;6.60;99.90;;;;;;5114844;28;20575;-58
2022/11/14 08:03:43;;;;;;;12.37;9.23;;;6.70;99.90;;;;;;5114816;28;20659;-58
2022/11/14 08:06:12;;;;;;;14.47;10.17;;;6.70;99.90;;;;;;5114030;28;20207;-58
2022/11/14 08:08:39;;;;;;;15.17;9.47;;;6.90;99.90;;;;;;5114828;28;20223;-58
2022/11/14 08:11:06;;;;;;;16.90;10.27;;;7.20;99.90;;;;;;5114658;28;20663;-58
2022/11/14 08:13:33;;;;;;;13.23;9.73;;;7.50;99.90;;;;;;5114202;28;20544;-59
2022/11/14 08:16:04;;;;;;;16.73;10.57;;;7.70;99.90;;;;;;5113960;28;20199;-59
2022/11/14 08:18:31;;;;;;;11.80;8.70;;;7.90;99.90;;;;;;5114249;28;20227;-59
2022/11/14 08:20:58;;;;;;;12.83;9.60;;;8.00;99.90;;;;;;5114649;28;20210;-58
2022/11/14 08:23:26;;;;;;;12.17;9.27;;;8.10;99.90;;;;;;5114122;28;20199;-58
2022/11/14 08:25:53;;;;;;;12.67;8.93;;;8.30;99.90;;;;;;5113633;28;20226;-58
2022/11/14 08:28:20;;;;;;;14.07;9.23;;;8.50;99.90;;;;;;5113867;28;20699;-58
2022/11/14 08:30:46;;;;;;;14.00;9.00;;;8.40;99.90;;;;;;5114138;28;20208;-58
2022/11/14 08:33:13;;;;;;;12.23;8.17;;;8.50;99.90;;;;;;5113888;28;20226;-59
2022/11/14 08:35:40;;;;;;;10.87;7.93;;;8.70;99.90;;;;;;5113417;28;20655;-58
2022/11/14 08:38:07;;;;;;;8.67;7.40;;;9.00;99.90;;;;;;5113904;28;20294;-58
2022/11/14 08:40:35;;;;;;;9.13;7.47;;;9.30;99.90;;;;;;5113904;28;20670;-58
2022/11/14 08:43:02;;;;;;;11.00;8.52;;;9.50;99.90;;;;;;5109357;28;20462;-57
2022/11/14 08:45:29;;;;;;;10.50;7.83;;;9.70;99.90;;;;;;5111554;28;20214;-56
2022/11/14 08:47:56;;;;;;;10.53;7.73;;;9.80;99.90;;;;;;5125146;27;20210;-54
2022/11/14 08:50:23;;;;;;;11.03;8.03;;;10.10;99.90;;;;;;5133607;27;20225;-55
2022/11/14 08:52:51;;;;;;;9.87;6.97;;;10.20;99.90;;;;;;5133285;27;20222;-55
2022/11/14 08:55:18;;;;;;;10.27;7.73;;;10.40;99.90;;;;;;5132750;27;20202;-55
2022/11/14 08:57:46;;;;;;;10.07;7.67;;;10.60;99.90;;;;;;5133484;27;20199;-54
2022/11/14 09:00:14;;;;;;;12.40;10.03;;;10.80;99.90;;;;;;5133526;27;20203;-55
2022/11/14 09:02:41;;;;;;;9.30;7.20;;;10.90;99.90;;;;;;5133154;27;20206;-55
2022/11/14 09:05:08;;;;;;;8.50;6.37;;;11.00;99.90;;;;;;5132906;27;20210;-55
2022/11/14 09:07:35;;;;;;;60.73;39.73;;;11.10;99.90;;;;;;5132716;27;20218;-56
2022/11/14 09:10:02;;;;;;;13.07;9.33;;;11.10;99.90;;;;;;5132806;27;20271;-57
2022/11/14 09:12:29;;;;;;;14.10;8.83;;;11.10;99.90;;;;;;5132614;27;20365;-55
2022/11/14 09:14:57;;;;;;;6.93;4.83;;;11.10;99.90;;;;;;5132545;27;20203;-55
2022/11/14 09:17:24;;;;;;;4.27;3.50;;;11.10;99.90;;;;;;5132657;27;20227;-56
2022/11/14 09:19:51;;;;;;;4.40;3.67;;;11.10;99.90;;;;;;5132763;27;20223;-55
2022/11/14 09:22:18;;;;;;;4.60;3.87;;;11.10;99.90;;;;;;5132025;27;20210;-55
2022/11/14 09:24:48;;;;;;;4.33;3.20;;;11.10;99.90;;;;;;5131988;27;20234;-55
2022/11/14 09:27:14;;;;;;;5.87;3.67;;;11.10;99.90;;;;;;5132106;27;20247;-56
2022/11/14 09:29:41;;;;;;;4.87;3.37;;;11.00;99.90;;;;;;5133259;27;20222;-54
2022/11/14 09:32:09;;;;;;;4.47;2.70;;;11.00;99.90;;;;;;5132307;27;20203;-55
2022/11/14 09:34:41;;;;;;;5.13;2.90;;;11.00;99.90;;;;;;5132504;27;20670;-54
2022/11/14 09:37:08;;;;;;;3.67;2.97;;;11.00;99.90;;;;;;5132119;27;20211;-54
2022/11/14 09:39:38;;;;;;;4.30;3.33;;;10.90;99.90;;;;;;5131499;27;20245;-54
2022/11/14 09:42:19;;;;;;;6.03;2.77;;;11.00;99.90;;;;;;5131370;27;20890;-54
2022/11/14 09:44:57;;;;;;;3.37;2.40;;;11.00;99.90;;;;;;5131984;27;20202;-54
2022/11/14 09:47:29;;;;;;;5.97;2.97;;;11.00;99.90;;;;;;5132157;28;20454;-55
2022/11/14 09:50:02;;;;;;;5.13;2.00;;;11.00;99.90;;;;;;5131594;28;20581;-55
2022/11/14 09:52:35;;;;;;;2.70;2.10;;;11.10;99.90;;;;;;5131508;28;20666;-56
2022/11/14 09:55:09;;;;;;;6.53;4.43;;;11.10;99.90;;;;;;5131514;28;20203;-54
2022/11/14 09:57:36;;;;;;;1.60;1.50;;;11.20;99.90;;;;;;5132092;28;20611;-55
2022/11/14 10:00:06;;;;;;;2.47;1.83;;;11.20;99.90;;;;;;5132074;28;20225;-55
2022/11/14 10:02:40;;;;;;;2.47;1.60;;;11.30;99.90;;;;;;5131490;28;20206;-55
2022/11/14 10:05:23;;;;;;;1.27;1.17;;;11.30;99.90;;;;;;5131443;28;20211;-55
2022/11/14 10:08:09;;;;;;;1.43;1.33;;;11.50;99.90;;;;;;5135389;27;20203;-55
2022/11/14 10:10:50;;;;;;;1.63;1.43;;;11.60;99.90;;;;;;5135798;27;20214;-55
2022/11/14 10:13:37;;;;;;;1.60;1.50;;;11.80;99.90;;;;;;5135910;27;20278;-55
2022/11/14 10:16:11;;;;;;;1.90;1.30;;;12.10;99.90;;;;;;5135028;27;20202;-55
2022/11/14 10:19:02;;;;;;;5.70;3.73;;;12.20;99.90;;;;;;5135875;27;20223;-54
2022/11/14 10:21:39;;;;;;;1.80;1.50;;;12.20;99.90;;;;;;5135779;27;20210;-60
2022/11/14 10:24:21;;;;;;;2.53;1.87;;;12.20;99.90;;;;;;5135673;27;20198;-58
2022/11/14 10:26:57;;;;;;;4.60;2.10;;;12.20;99.90;;;;;;5135142;27;20210;-62
2022/11/14 10:29:40;;;;;;;3.47;2.13;;;12.20;99.90;;;;;;5136546;27;20275;-56
2022/11/14 10:32:19;;;;;;;3.20;2.37;;;12.20;99.90;;;;;;5135679;27;20211;-63
2022/11/14 10:34:54;;;;;;;2.50;2.20;;;12.30;99.90;;;;;;5135345;27;20222;-56
2022/11/14 10:37:26;;;;;;;5.37;2.70;;;12.40;99.90;;;;;;5136474;27;20202;-57
2022/11/14 10:39:55;;;;;;;15.13;10.23;;;12.50;99.90;;;;;;5135115;27;20239;-57
2022/11/14 10:42:29;;;;;;;5.60;2.60;;;12.50;99.90;;;;;;5134976;27;20674;-57
2022/11/14 10:45:02;;;;;;;2.50;2.10;;;12.60;99.90;;;;;;5135162;27;20206;-57
2022/11/14 10:47:35;;;;;;;3.53;2.50;;;12.70;99.90;;;;;;5135484;27;20225;-57
2022/11/14 10:50:16;;;;;;;2.40;1.23;;;12.80;99.90;;;;;;5135691;27;20226;-57
2022/11/14 10:52:45;;;;;;;1.37;1.07;;;12.90;99.90;;;;;;5134960;27;20206;-58
2022/11/14 10:55:15;;;;;;;2.00;1.30;;;12.90;99.90;;;;;;5134586;27;20239;-58
2022/11/14 10:57:46;;;;;;;3.17;1.90;;;13.10;99.90;;;;;;5135423;27;20225;-57
2022/11/14 11:00:15;;;;;;;1.90;1.27;;;13.10;99.90;;;;;;5135415;27;20202;-58
2022/11/14 11:02:51;;;;;;;1.40;1.20;;;13.20;99.90;;;;;;5134817;27;20202;-58
2022/11/14 11:05:21;;;;;;;1.00;0.87;;;13.30;99.90;;;;;;5134690;27;20210;-58
2022/11/14 11:13:34;;;;;;;4.30;2.47;;;13.70;99.90;;;;;;5135186;27;20218;-59
2022/11/14 11:16:04;;;;;;;1.67;1.40;;;13.60;99.90;;;;;;5133349;27;20199;-59
2022/11/14 11:18:33;;;;;;;3.53;2.23;;;13.60;99.90;;;;;;5105948;27;20313;-56
2022/11/14 11:21:07;;;;;;;7.67;4.00;;;13.50;99.90;;;;;;5113818;28;20219;-58
2022/11/14 11:23:35;;;;;;;48.53;24.40;;;13.50;99.90;;;;;;5114244;28;20689;-57
2022/11/14 11:26:04;;;;;;;5.67;3.33;;;13.60;99.90;;;;;;5114544;28;20210;-56
2022/11/14 11:28:33;;;;;;;2.17;1.30;;;13.70;99.90;;;;;;5113782;28;20239;-57
2022/11/14 11:31:01;;;;;;;4.60;3.60;;;13.90;99.90;;;;;;5114229;28;20233;-57
2022/11/14 11:33:30;;;;;;;3.43;2.33;;;14.00;99.90;;;;;;5114071;28;20702;-58
2022/11/14 11:36:02;;;;;;;1.87;1.40;;;14.20;99.90;;;;;;5113343;28;20293;-57
2022/11/14 11:38:31;;;;;;;1.50;1.20;;;14.40;99.90;;;;;;5113752;28;20634;-57
2022/11/14 11:41:06;;;;;;;3.00;1.70;;;14.80;99.90;;;;;;5113431;28;20683;-57
2022/11/14 11:43:40;;;;;;;4.43;1.70;;;15.10;99.90;;;;;;5114427;28;20248;-57
2022/11/14 11:46:15;;;;;;;3.27;1.80;;;15.30;99.90;;;;;;5113283;28;20642;-57
2022/11/14 11:48:42;;;;;;;4.70;1.70;;;15.50;99.90;;;;;;5113553;28;20311;-58
2022/11/14 11:51:16;;;;;;;1.47;1.07;;;15.50;99.90;;;;;;5113182;28;20215;-58
2022/11/14 11:53:50;;;;;;;1.93;1.40;;;15.40;99.90;;;;;;5113810;28;20243;-58
2022/11/14 11:56:22;;;;;;;2.70;1.40;;;15.40;99.90;;;;;;5113022;28;20213;-58
2022/11/14 11:58:51;;;;;;;1.30;1.03;;;15.30;99.90;;;;;;5113774;28;20261;-61
2022/11/14 12:01:18;;;;;;;1.83;1.30;;;15.30;99.90;;;;;;5113879;28;20225;-59
2022/11/14 12:03:48;;;;;;;1.80;1.20;;;15.20;99.90;;;;;;5113633;28;20235;-60
2022/11/14 12:06:23;;;;;;;1.23;1.13;;;15.20;99.90;;;;;;5114069;28;20226;-61
2022/11/14 12:09:03;;;;;;;1.93;1.50;;;15.10;99.90;;;;;;5114160;28;20967;-61
2022/11/14 12:11:34;;;;;;;1.47;1.27;;;15.00;99.90;;;;;;5114187;28;20211;-61
2022/11/14 12:14:33;;;;;;;2.53;1.30;;;15.00;99.90;;;;;;5114006;28;20234;-61
2022/11/14 12:17:27;;;;;;;3.07;1.40;;;15.00;99.90;;;;;;5109996;28;20709;-61
2022/11/14 12:20:27;;;;;;;2.33;1.70;;;15.00;99.90;;;;;;5105286;28;20280;-61
2022/11/14 12:23:17;;;;;;;2.57;1.50;;;15.00;99.90;;;;;;5114322;28;20214;-61
2022/11/14 12:26:04;;;;;;;2.47;1.47;;;14.90;99.90;;;;;;5112980;28;20200;-61
2022/11/14 12:28:58;;;;;;;1.63;1.47;;;14.90;99.90;;;;;;5112988;28;20943;-60
2022/11/14 12:31:27;;;;;;;1.77;1.30;;;14.80;99.90;;;;;;5114122;28;20207;-59
2022/11/14 12:33:59;;;;;;;2.50;1.23;;;14.60;99.90;;;;;;5113241;28;20649;-60
2022/11/14 12:36:30;;;;;;;1.70;1.43;;;14.50;99.90;;;;;;5112511;28;20211;-60
2022/11/14 12:38:58;;;;;;;1.60;1.20;;;14.40;99.90;;;;;;5112817;28;20250;-59
2022/11/14 12:41:28;;;;;;;2.43;1.70;;;14.30;99.90;;;;;;5112019;28;20207;-58
2022/11/14 12:44:18;;;;;;;1.70;1.43;;;14.20;99.90;;;;;;5112967;28;20241;-60
2022/11/14 12:47:14;;;;;;;1.53;1.30;;;14.30;99.90;;;;;;5112212;28;20222;-60
2022/11/14 12:49:57;;;;;;;2.13;1.70;;;14.30;99.90;;;;;;5111750;28;20223;-60
2022/11/14 12:52:48;;;;;;;1.60;1.33;;;14.40;99.90;;;;;;5112553;28;20230;-59
2022/11/14 12:55:58;;;;;;;2.57;1.50;;;14.50;99.90;;;;;;5112007;28;20215;-60
2022/11/14 12:58:49;;;;;;;2.87;2.20;;;14.80;99.90;;;;;;5111261;28;20593;-62